createdAt,value
2022-12-08T00:00:52.221Z,2.27
2022-12-08T00:03:23.015Z,2.24
2022-12-08T00:06:16.548Z,2.23
2022-12-08T00:09:04.764Z,2.21
2022-12-08T00:11:35.605Z,2.18
2022-12-08T00:14:06.263Z,2.17
2022-12-08T00:16:37.254Z,2.15
2022-12-08T00:19:07.859Z,2.14
2022-12-08T00:21:38.151Z,2.12
2022-12-08T00:24:09.063Z,2.12
2022-12-08T00:26:40.347Z,2.09
2022-12-08T00:29:16.997Z,2.09
2022-12-08T00:31:48.154Z,2.08
2022-12-08T00:34:18.767Z,2.07
2022-12-08T00:36:49.524Z,2.06
2022-12-08T00:39:20.315Z,2.05
2022-12-08T00:42:08.393Z,2.04
2022-12-08T00:44:39.230Z,2.03
2022-12-08T00:47:09.733Z,2.01
2022-12-08T00:49:40.561Z,1.99
2022-12-08T00:52:12.694Z,1.98
2022-12-08T00:54:43.017Z,1.98
2022-12-08T00:57:13.342Z,1.96
2022-12-08T00:59:43.947Z,1.95
2022-12-08T01:02:14.394Z,1.95
2022-12-08T01:04:45.106Z,1.93
2022-12-08T01:07:15.508Z,1.92
2022-12-08T01:09:45.783Z,1.92
2022-12-08T01:12:16.198Z,1.92
2022-12-08T01:14:47.114Z,1.91
2022-12-08T01:17:17.515Z,1.90
2022-12-08T01:19:47.894Z,1.89
2022-12-08T01:22:18.250Z,1.90
2022-12-08T01:24:48.713Z,1.89
2022-12-08T01:27:19.404Z,1.88
2022-12-08T01:29:49.859Z,1.87
2022-12-08T01:32:20.397Z,1.84
2022-12-08T01:34:50.710Z,1.82
2022-12-08T01:37:21.194Z,1.82
2022-12-08T01:39:51.540Z,1.81
2022-12-08T01:42:24.296Z,1.80
2022-12-08T01:45:00.591Z,1.78
2022-12-08T01:47:36.661Z,1.77
2022-12-08T01:50:11.365Z,1.76
2022-12-08T01:52:47.237Z,1.75
2022-12-08T01:55:22.976Z,1.72
2022-12-08T01:57:57.024Z,1.73
2022-12-08T02:00:27.731Z,1.72
2022-12-08T02:03:01.822Z,1.72
2022-12-08T02:05:34.811Z,1.73
2022-12-08T02:08:08.745Z,1.73
2022-12-08T02:10:41.694Z,1.74
2022-12-08T02:13:16.277Z,1.73
2022-12-08T02:15:58.930Z,1.74
2022-12-08T02:18:43.857Z,1.74
2022-12-08T02:21:19.427Z,1.74
2022-12-08T02:23:58.308Z,1.74
2022-12-08T02:26:58.786Z,1.72
2022-12-08T02:29:53.689Z,1.71
2022-12-08T02:32:45.822Z,1.71
2022-12-08T02:35:23.318Z,1.70
2022-12-08T02:38:05.478Z,1.70
2022-12-08T02:40:44.154Z,1.70
2022-12-08T02:43:21.442Z,1.70
2022-12-08T02:45:56.376Z,1.69
2022-12-08T02:48:29.526Z,1.68
2022-12-08T02:51:00.090Z,1.68
2022-12-08T02:53:33.188Z,1.67
2022-12-08T02:56:14.969Z,1.65
2022-12-08T02:59:15.068Z,1.63
2022-12-08T03:02:01.044Z,1.62
2022-12-08T03:04:43.230Z,1.61
2022-12-08T03:07:22.414Z,1.61
2022-12-08T03:09:57.663Z,1.61
2022-12-08T03:12:33.315Z,1.61
2022-12-08T03:15:08.835Z,1.60
2022-12-08T03:17:41.202Z,1.60
2022-12-08T03:20:17.463Z,1.59
2022-12-08T03:22:50.312Z,1.60
2022-12-08T03:25:26.779Z,1.62
2022-12-08T03:27:57.672Z,1.62
2022-12-08T03:30:30.953Z,1.61
2022-12-08T03:33:06.063Z,1.60
2022-12-08T03:35:40.334Z,1.58
2022-12-08T03:38:14.556Z,1.58
2022-12-08T03:41:05.821Z,1.56
2022-12-08T03:43:36.480Z,1.55
2022-12-08T03:46:06.987Z,1.53
2022-12-08T03:48:37.532Z,1.52
2022-12-08T03:51:07.927Z,1.50
2022-12-08T03:53:38.647Z,1.48
2022-12-08T03:56:20.592Z,1.47
2022-12-08T03:58:53.250Z,1.45
2022-12-08T04:01:24.191Z,1.44
2022-12-08T04:03:55.240Z,1.44
2022-12-08T04:06:25.594Z,1.42
2022-12-08T04:08:56.071Z,1.42
2022-12-08T04:11:26.509Z,1.41
2022-12-08T04:13:56.921Z,1.40
2022-12-08T04:16:28.551Z,1.39
2022-12-08T04:18:59.023Z,1.39
2022-12-08T04:21:29.528Z,1.37
2022-12-08T04:24:01.428Z,1.37
2022-12-08T04:26:32.189Z,1.35
2022-12-08T04:29:02.670Z,1.33
2022-12-08T04:31:33.066Z,1.31
2022-12-08T04:34:03.869Z,1.30
2022-12-08T04:36:34.282Z,1.29
2022-12-08T04:39:05.183Z,1.27
2022-12-08T04:41:35.824Z,1.26
2022-12-08T04:44:06.354Z,1.27
2022-12-08T04:46:41.706Z,1.27
2022-12-08T04:49:13.823Z,1.28
2022-12-08T04:51:44.385Z,1.28
2022-12-08T04:54:14.875Z,1.29
2022-12-08T04:56:45.202Z,1.30
2022-12-08T04:59:15.618Z,1.30
2022-12-08T05:01:46.089Z,1.30
2022-12-08T05:04:16.790Z,1.31
2022-12-08T05:06:47.169Z,1.32
2022-12-08T05:09:17.660Z,1.32
2022-12-08T05:11:49.210Z,1.31
2022-12-08T05:14:21.219Z,1.31
2022-12-08T05:16:51.620Z,1.31
2022-12-08T05:19:22.151Z,1.30
2022-12-08T05:21:52.599Z,1.32
2022-12-08T05:24:23.060Z,1.31
2022-12-08T05:26:53.438Z,1.31
2022-12-08T05:29:23.832Z,1.30
2022-12-08T05:31:54.192Z,1.29
2022-12-08T05:34:24.777Z,1.28
2022-12-08T05:36:55.093Z,1.27
2022-12-08T05:39:25.587Z,1.25
2022-12-08T05:41:56.026Z,1.22
2022-12-08T05:44:26.869Z,1.21
2022-12-08T05:46:57.320Z,1.20
2022-12-08T05:49:27.747Z,1.19
2022-12-08T05:51:58.076Z,1.18
2022-12-08T05:54:28.444Z,1.18
2022-12-08T05:56:58.863Z,1.17
2022-12-08T05:59:29.352Z,1.17
2022-12-08T06:01:59.972Z,1.17
2022-12-08T06:04:30.557Z,1.18
2022-12-08T06:07:00.900Z,1.18
2022-12-08T06:09:32.805Z,1.18
2022-12-08T06:12:03.869Z,1.18
2022-12-08T06:14:34.589Z,1.19
2022-12-08T06:17:04.992Z,1.19
2022-12-08T06:19:35.496Z,1.21
2022-12-08T06:22:05.985Z,1.21
2022-12-08T06:24:36.336Z,1.22
2022-12-08T06:27:06.719Z,1.23
2022-12-08T06:29:37.168Z,1.23
2022-12-08T06:32:07.937Z,1.23
2022-12-08T06:34:38.342Z,1.24
2022-12-08T06:37:08.777Z,1.25
2022-12-08T06:39:39.373Z,1.26
2022-12-08T06:42:36.563Z,1.25
2022-12-08T06:45:08.382Z,1.27
2022-12-08T06:47:39.029Z,1.27
2022-12-08T06:50:14.216Z,1.28
2022-12-08T06:52:56.888Z,1.28
2022-12-08T06:55:58.675Z,1.28
2022-12-08T06:58:19.687Z,1.28
2022-12-08T07:00:50.211Z,1.29
2022-12-08T07:03:20.803Z,1.29
2022-12-08T07:05:51.269Z,1.30
2022-12-08T07:08:21.682Z,1.31
2022-12-08T07:10:52.545Z,1.32
2022-12-08T07:13:23.192Z,1.33
2022-12-08T07:15:53.671Z,1.33
2022-12-08T07:18:24.053Z,1.34
2022-12-08T07:20:54.508Z,1.34
2022-12-08T07:23:24.889Z,1.34
2022-12-08T07:25:55.296Z,1.36
2022-12-08T07:28:25.782Z,1.37
2022-12-08T07:30:56.173Z,1.37
2022-12-08T07:33:27.073Z,1.37
2022-12-08T07:35:59.537Z,1.38
2022-12-08T07:38:30.735Z,1.39
2022-12-08T07:41:01.274Z,1.40
2022-12-08T07:43:32.617Z,1.41
2022-12-08T07:46:01.677Z,1.43
2022-12-08T07:48:32.098Z,1.44
2022-12-08T07:51:06.289Z,1.45
2022-12-08T07:53:37.110Z,1.47
2022-12-08T07:56:11.108Z,1.49
2022-12-08T07:58:42.751Z,1.51
2022-12-08T08:01:26.743Z,1.54
2022-12-08T08:04:01.747Z,1.55
2022-12-08T08:06:32.953Z,1.58
2022-12-08T08:09:03.509Z,1.58
2022-12-08T08:11:33.996Z,1.59
2022-12-08T08:14:04.760Z,1.60
2022-12-08T08:16:38.578Z,1.61
2022-12-08T08:19:09.556Z,1.64
2022-12-08T08:21:47.423Z,1.67
2022-12-08T08:24:18.331Z,1.69
2022-12-08T08:26:48.693Z,1.72
2022-12-08T08:29:19.421Z,1.73
2022-12-08T08:31:49.839Z,1.75
2022-12-08T08:34:20.924Z,1.77
2022-12-08T08:36:51.431Z,1.78
2022-12-08T08:39:21.871Z,1.81
2022-12-08T08:41:52.522Z,1.83
2022-12-08T08:44:23.284Z,1.84
2022-12-08T08:46:54.118Z,1.85
2022-12-08T08:49:24.658Z,1.86
2022-12-08T08:51:55.338Z,1.88
2022-12-08T08:54:25.777Z,1.90
2022-12-08T08:56:56.564Z,1.91
2022-12-08T08:59:27.220Z,1.91
2022-12-08T09:01:58.005Z,1.92
2022-12-08T09:04:28.499Z,1.92
2022-12-08T09:06:59.575Z,1.92
2022-12-08T09:09:30.969Z,1.93
2022-12-08T09:11:59.935Z,1.93
2022-12-08T09:14:30.630Z,1.94
2022-12-08T09:17:01.272Z,1.95
2022-12-08T09:19:31.758Z,1.97
2022-12-08T09:22:02.249Z,1.98
2022-12-08T09:24:33.017Z,2.00
2022-12-08T09:27:03.486Z,2.05
2022-12-08T09:29:36.265Z,2.10
2022-12-08T09:32:07.650Z,2.17
2022-12-08T09:34:38.134Z,2.22
2022-12-08T09:37:08.988Z,2.26
2022-12-08T09:39:39.403Z,2.30
2022-12-08T09:42:11.287Z,2.34
2022-12-08T09:44:52.045Z,2.38
2022-12-08T09:47:30.732Z,2.42
2022-12-08T09:50:09.092Z,2.45
2022-12-08T09:52:46.291Z,2.48
2022-12-08T09:55:25.390Z,2.52
2022-12-08T09:58:04.219Z,2.57
2022-12-08T10:00:35.369Z,2.63
2022-12-08T10:03:12.368Z,2.70
2022-12-08T10:05:54.528Z,2.77
2022-12-08T10:08:32.074Z,2.83
2022-12-08T10:11:11.848Z,2.89
2022-12-08T10:13:49.605Z,2.91
2022-12-08T10:16:30.294Z,2.94
2022-12-08T10:19:14.606Z,3.02
2022-12-08T10:21:45.649Z,3.06
2022-12-08T10:24:27.908Z,3.06
2022-12-08T10:26:59.053Z,3.05
2022-12-08T10:29:29.699Z,3.07
2022-12-08T10:32:01.744Z,3.09
2022-12-08T10:34:32.694Z,3.08
2022-12-08T10:37:09.893Z,3.10
2022-12-08T10:39:43.907Z,3.13
2022-12-08T10:42:22.915Z,3.16
2022-12-08T10:45:00.299Z,3.19
2022-12-08T10:47:36.354Z,3.23
2022-12-08T10:50:34.548Z,3.27
2022-12-08T10:53:16.626Z,3.27
2022-12-08T10:55:49.562Z,3.28
2022-12-08T10:58:35.804Z,3.25
2022-12-08T11:01:12.668Z,3.23
2022-12-08T11:03:49.838Z,3.23
2022-12-08T11:06:24.781Z,3.20
2022-12-08T11:08:56.917Z,3.20
2022-12-08T11:11:45.374Z,3.18
2022-12-08T11:14:20.715Z,3.19
2022-12-08T11:16:53.157Z,3.22
2022-12-08T11:19:27.788Z,3.27
2022-12-08T11:21:58.165Z,3.32
2022-12-08T11:24:36.040Z,3.37
2022-12-08T11:27:09.632Z,3.41
2022-12-08T11:29:40.336Z,3.46
2022-12-08T11:32:14.888Z,3.49
2022-12-08T11:34:49.452Z,3.53
2022-12-08T11:37:28.575Z,3.60
2022-12-08T11:40:06.605Z,3.65
2022-12-08T11:42:47.547Z,3.67
2022-12-08T11:45:25.643Z,3.69
2022-12-08T11:48:05.762Z,3.69
2022-12-08T11:50:44.621Z,3.69
2022-12-08T11:53:23.565Z,3.69
2022-12-08T11:55:59.152Z,3.71
2022-12-08T11:58:37.300Z,3.73
2022-12-08T12:01:16.286Z,3.72
2022-12-08T12:03:54.034Z,3.71
2022-12-08T12:06:58.984Z,3.71
2022-12-08T12:09:43.808Z,3.73
2022-12-08T12:12:30.303Z,3.71
2022-12-08T12:15:30.022Z,3.72
2022-12-08T12:18:04.554Z,3.71
2022-12-08T12:20:39.987Z,3.68
2022-12-08T12:23:20.942Z,3.68
2022-12-08T12:25:57.205Z,3.66
2022-12-08T12:28:31.736Z,3.66
2022-12-08T12:31:07.413Z,3.64
2022-12-08T12:33:38.679Z,3.67
2022-12-08T12:36:12.188Z,3.70
2022-12-08T12:39:06.380Z,3.71
2022-12-08T12:41:44.677Z,3.70
2022-12-08T12:44:44.518Z,3.70
2022-12-08T12:47:37.100Z,3.70
2022-12-08T12:50:13.313Z,3.71
2022-12-08T12:52:53.317Z,3.71
2022-12-08T12:55:30.041Z,3.71
2022-12-08T12:58:04.673Z,3.72
2022-12-08T13:00:35.349Z,3.72
2022-12-08T13:03:06.232Z,3.75
2022-12-08T13:05:50.584Z,3.80
2022-12-08T13:08:25.694Z,3.81
2022-12-08T13:11:03.995Z,3.82
2022-12-08T13:13:34.815Z,3.83
2022-12-08T13:16:19.122Z,3.83
2022-12-08T13:18:52.364Z,3.87
2022-12-08T13:21:24.600Z,3.89
2022-12-08T13:24:19.886Z,3.95
2022-12-08T13:26:52.167Z,4.01
2022-12-08T13:29:25.575Z,4.05
2022-12-08T13:31:57.699Z,4.13
2022-12-08T13:34:41.248Z,4.34
2022-12-08T13:37:26.522Z,4.47
2022-12-08T13:40:00.490Z,4.52
2022-12-08T13:42:42.011Z,4.54
2022-12-08T13:45:33.651Z,4.54
2022-12-08T13:48:36.740Z,4.46
2022-12-08T13:57:10.552Z,4.14
2022-12-08T13:59:46.562Z,4.04
2022-12-08T14:02:27.885Z,3.96
2022-12-08T14:07:50.842Z,3.82
2022-12-08T14:10:24.438Z,3.77
2022-12-08T14:13:00.498Z,3.72
2022-12-08T14:15:37.788Z,3.66
2022-12-08T14:18:26.468Z,3.64
2022-12-08T14:21:21.960Z,3.62
2022-12-08T14:23:55.067Z,3.61
2022-12-08T14:26:29.636Z,3.59
2022-12-08T14:29:02.786Z,3.55
2022-12-08T14:31:36.531Z,3.53
2022-12-08T14:34:07.403Z,3.51
2022-12-08T14:36:36.717Z,3.50
2022-12-08T14:39:12.033Z,3.46
2022-12-08T14:42:06.578Z,3.43
2022-12-08T14:44:57.620Z,3.40
2022-12-08T14:47:34.460Z,3.37
2022-12-08T14:50:27.941Z,3.34
2022-12-08T14:52:58.558Z,3.34
2022-12-08T14:55:30.112Z,3.33
2022-12-08T14:58:00.694Z,3.29
2022-12-08T15:00:34.995Z,3.24
2022-12-08T15:03:10.836Z,3.19
2022-12-08T15:05:41.497Z,3.14
2022-12-08T15:08:13.945Z,3.10
2022-12-08T15:10:48.262Z,3.06
2022-12-08T15:13:30.132Z,3.02
2022-12-08T15:16:02.742Z,2.99
2022-12-08T15:18:39.538Z,2.95
2022-12-08T15:21:12.953Z,2.92
2022-12-08T15:23:46.173Z,2.88
2022-12-08T15:26:22.193Z,2.85
2022-12-08T15:28:56.115Z,2.83
2022-12-08T15:31:26.711Z,2.81
2022-12-08T15:33:57.224Z,2.79
2022-12-08T15:36:27.524Z,2.77
2022-12-08T15:38:57.970Z,2.75
2022-12-08T15:41:28.525Z,2.74
2022-12-08T15:43:59.126Z,2.73
2022-12-08T15:46:29.804Z,2.72
2022-12-08T15:49:00.348Z,2.71
2022-12-08T15:51:36.506Z,2.70
2022-12-08T15:54:07.246Z,2.69
2022-12-08T15:56:45.416Z,2.67
2022-12-08T15:59:28.562Z,2.66
2022-12-08T16:01:59.363Z,2.64
2022-12-08T16:05:25.100Z,2.61
2022-12-08T16:07:26.207Z,2.59
2022-12-08T16:09:57.915Z,2.57
2022-12-08T16:16:00.708Z,2.53
2022-12-08T16:18:34.312Z,2.52
2022-12-08T16:21:31.692Z,2.51
2022-12-08T16:23:56.076Z,2.49
2022-12-08T16:27:22.543Z,2.49
2022-12-08T16:29:22.532Z,2.49
2022-12-08T16:31:53.345Z,2.49
2022-12-08T16:34:23.762Z,2.48
2022-12-08T16:36:54.695Z,2.48
2022-12-08T16:39:25.268Z,2.47
2022-12-08T16:42:13.696Z,2.47
2022-12-08T16:44:44.518Z,2.47
2022-12-08T16:47:14.962Z,2.47
2022-12-08T16:49:45.282Z,2.47
2022-12-08T16:52:15.778Z,2.47
2022-12-08T16:54:46.224Z,2.46
2022-12-08T16:57:17.010Z,2.46
2022-12-08T16:59:47.738Z,2.46
2022-12-08T17:02:18.260Z,2.45
2022-12-08T17:04:49.063Z,2.45
2022-12-08T17:07:19.649Z,2.44
2022-12-08T17:09:50.103Z,2.44
2022-12-08T17:12:20.710Z,2.43
2022-12-08T17:14:51.535Z,2.43
2022-12-08T17:17:22.191Z,2.42
2022-12-08T17:19:52.908Z,2.42
2022-12-08T17:22:23.597Z,2.41
2022-12-08T17:24:54.291Z,2.41
2022-12-08T17:27:24.907Z,2.41
2022-12-08T17:29:55.564Z,2.40
2022-12-08T17:32:27.059Z,2.40
2022-12-08T17:34:58.026Z,2.39
2022-12-08T17:37:28.581Z,2.39
2022-12-08T17:39:59.210Z,2.38
2022-12-08T17:42:29.946Z,2.38
2022-12-08T17:45:00.484Z,2.37
2022-12-08T17:47:31.009Z,2.35
2022-12-08T17:50:01.853Z,2.34
2022-12-08T17:52:32.473Z,2.34
2022-12-08T17:55:03.056Z,2.34
2022-12-08T17:57:33.642Z,2.33
2022-12-08T18:00:05.423Z,2.32
2022-12-08T18:02:42.711Z,2.33
2022-12-08T18:05:13.264Z,2.32
2022-12-08T18:07:43.763Z,2.32
2022-12-08T18:10:14.427Z,2.32
2022-12-08T18:12:45.077Z,2.31
2022-12-08T18:15:19.693Z,2.30
2022-12-08T18:17:50.053Z,2.29
2022-12-08T18:20:20.670Z,2.28
2022-12-08T18:22:51.052Z,2.28
2022-12-08T18:25:21.878Z,2.28
2022-12-08T18:27:52.269Z,2.28
2022-12-08T18:30:23.361Z,2.27
2022-12-08T18:32:57.331Z,2.26
2022-12-08T18:35:28.948Z,2.25
2022-12-08T18:38:00.247Z,2.24
2022-12-08T18:40:31.036Z,2.24
2022-12-08T18:43:01.794Z,2.25
2022-12-08T18:45:32.736Z,2.23
2022-12-08T18:48:03.522Z,2.23
2022-12-08T18:50:34.051Z,2.23
2022-12-08T18:53:04.477Z,2.22
2022-12-08T18:55:35.071Z,2.22
2022-12-08T18:58:05.649Z,2.22
2022-12-08T19:00:36.216Z,2.22
2022-12-08T19:03:06.840Z,2.22
2022-12-08T19:05:37.375Z,2.21
2022-12-08T19:08:08.993Z,2.21
2022-12-08T19:10:40.334Z,2.19
2022-12-08T19:13:09.630Z,2.18
2022-12-08T19:15:40.183Z,2.17
2022-12-08T19:18:10.768Z,2.15
2022-12-08T19:20:41.159Z,2.13
2022-12-08T19:23:12.578Z,2.12
2022-12-08T19:25:41.658Z,2.09
2022-12-08T19:28:12.144Z,2.08
2022-12-08T19:30:42.640Z,2.05
2022-12-08T19:33:13.236Z,2.05
2022-12-08T19:35:47.609Z,2.04
2022-12-08T19:38:22.656Z,2.03
2022-12-08T19:41:10.723Z,2.02
2022-12-08T19:43:59.109Z,2.01
2022-12-08T19:46:29.750Z,2.00
2022-12-08T19:49:00.333Z,1.99
2022-12-08T19:51:30.771Z,1.98
2022-12-08T19:54:01.309Z,1.98
2022-12-08T19:56:31.706Z,1.96
2022-12-08T19:59:02.505Z,1.95
2022-12-08T20:01:33.095Z,1.93
2022-12-08T20:04:03.796Z,1.92
2022-12-08T20:06:34.358Z,1.90
2022-12-08T20:09:05.001Z,1.88
2022-12-08T20:11:35.902Z,1.86
2022-12-08T20:14:06.604Z,1.85
2022-12-08T20:16:37.596Z,1.84
2022-12-08T20:19:08.101Z,1.83
2022-12-08T20:21:39.891Z,1.82
2022-12-08T20:24:10.866Z,1.81
2022-12-08T20:26:41.407Z,1.80
2022-12-08T20:29:12.447Z,1.78
2022-12-08T20:31:43.110Z,1.77
2022-12-08T20:34:17.443Z,1.76
2022-12-08T20:36:48.579Z,1.76
2022-12-08T20:39:20.576Z,1.74
2022-12-08T20:41:52.319Z,1.73
2022-12-08T20:44:23.000Z,1.72
2022-12-08T20:46:53.621Z,1.70
2022-12-08T20:49:26.321Z,1.69
2022-12-08T20:52:00.492Z,1.69
2022-12-08T20:54:35.528Z,1.68
2022-12-08T20:57:06.112Z,1.67
2022-12-08T20:59:36.620Z,1.66
2022-12-08T21:02:07.801Z,1.66
2022-12-08T21:04:38.642Z,1.65
2022-12-08T21:07:09.817Z,1.65
2022-12-08T21:09:40.716Z,1.65
2022-12-08T21:12:11.590Z,1.64
2022-12-08T21:14:42.443Z,1.63
2022-12-08T21:17:13.102Z,1.63
2022-12-08T21:19:43.918Z,1.62
2022-12-08T21:22:14.919Z,1.63
2022-12-08T21:24:45.815Z,1.63
2022-12-08T21:27:16.444Z,1.63
2022-12-08T21:29:47.194Z,1.62
2022-12-08T21:32:18.897Z,1.62
2022-12-08T21:34:49.826Z,1.62
2022-12-08T21:37:20.492Z,1.60
2022-12-08T21:39:51.523Z,1.60
2022-12-08T21:42:39.753Z,1.59
2022-12-08T21:45:12.882Z,1.58
2022-12-08T21:47:43.772Z,1.58
2022-12-08T21:50:15.864Z,1.57
2022-12-08T21:52:47.973Z,1.55
2022-12-08T21:55:20.403Z,1.55
2022-12-08T21:57:50.831Z,1.54
2022-12-08T22:00:24.317Z,1.54
2022-12-08T22:02:55.144Z,1.53
2022-12-08T22:05:25.786Z,1.52
2022-12-08T22:07:56.404Z,1.52
2022-12-08T22:10:27.392Z,1.50
2022-12-08T22:12:57.885Z,1.50
2022-12-08T22:15:29.809Z,1.48
2022-12-08T22:18:00.524Z,1.47
2022-12-08T22:20:31.478Z,1.47
2022-12-08T22:23:02.030Z,1.46
2022-12-08T22:25:32.588Z,1.44
2022-12-08T22:28:03.041Z,1.43
2022-12-08T22:30:38.859Z,1.42
2022-12-08T22:33:09.666Z,1.40
2022-12-08T22:35:40.041Z,1.39
2022-12-08T22:38:10.595Z,1.38
2022-12-08T22:40:43.545Z,1.36
2022-12-08T22:43:13.856Z,1.35
2022-12-08T22:45:44.692Z,1.34
2022-12-08T22:48:15.483Z,1.34
2022-12-08T22:50:47.045Z,1.33
2022-12-08T22:53:17.406Z,1.32
2022-12-08T22:55:48.140Z,1.32
2022-12-08T22:58:18.527Z,1.31
2022-12-08T23:00:49.182Z,1.30
2022-12-08T23:03:20.138Z,1.29
2022-12-08T23:05:51.002Z,1.28
2022-12-08T23:08:21.706Z,1.28
2022-12-08T23:10:53.327Z,1.27
2022-12-08T23:13:24.372Z,1.26
2022-12-08T23:15:54.849Z,1.26
2022-12-08T23:18:25.572Z,1.25
2022-12-08T23:20:55.966Z,1.24
2022-12-08T23:23:26.283Z,1.24
2022-12-08T23:25:56.699Z,1.24
2022-12-08T23:28:27.279Z,1.22
2022-12-08T23:30:57.769Z,1.21
2022-12-08T23:33:28.255Z,1.19
2022-12-08T23:35:59.998Z,1.18
2022-12-08T23:38:30.799Z,1.17
2022-12-08T23:41:05.377Z,1.15
2022-12-08T23:43:36.519Z,1.13
2022-12-08T23:46:07.716Z,1.10
2022-12-08T23:48:38.176Z,1.07
2022-12-08T23:51:08.898Z,1.03
2022-12-08T23:53:39.628Z,1.00
2022-12-08T23:56:13.501Z,0.95
2022-12-08T23:58:44.408Z,0.90
